sensor_id;sensor_type;location;lat;lon;timestamp;P1;durP1;ratioP1;P2;durP2;ratioP2
74541;SDS011;63015;45.378;20.360;2023-11-19T00:00:06;9.27;;;4.45;;
74541;SDS011;63015;45.378;20.360;2023-11-19T00:02:11;8.85;;;3.78;;
74541;SDS011;63015;45.378;20.360;2023-11-19T00:04:12;9.55;;;4.25;;
74541;SDS011;63015;45.378;20.360;2023-11-19T00:06:13;9.90;;;4.35;;
74541;SDS011;63015;45.378;20.360;2023-11-19T00:08:14;9.88;;;4.72;;
74541;SDS011;63015;45.378;20.360;2023-11-19T00:10:15;8.80;;;4.07;;
74541;SDS011;63015;45.378;20.360;2023-11-19T00:12:18;9.45;;;4.50;;
74541;SDS011;63015;45.378;20.360;2023-11-19T00:14:19;9.90;;;4.28;;
74541;SDS011;63015;45.378;20.360;2023-11-19T00:16:19;9.63;;;4.53;;
74541;SDS011;63015;45.378;20.360;2023-11-19T00:18:20;9.40;;;4.47;;
74541;SDS011;63015;45.378;20.360;2023-11-19T00:20:21;11.07;;;4.75;;
74541;SDS011;63015;45.378;20.360;2023-11-19T00:24:26;8.13;;;3.90;;
74541;SDS011;63015;45.378;20.360;2023-11-19T00:26:26;8.45;;;3.92;;
74541;SDS011;63015;45.378;20.360;2023-11-19T00:28:27;9.10;;;4.30;;
74541;SDS011;63015;45.378;20.360;2023-11-19T00:30:29;8.13;;;3.38;;
74541;SDS011;63015;45.378;20.360;2023-11-19T00:32:31;8.68;;;4.15;;
74541;SDS011;63015;45.378;20.360;2023-11-19T00:34:34;8.93;;;4.40;;
74541;SDS011;63015;45.378;20.360;2023-11-19T00:36:34;8.70;;;4.43;;
74541;SDS011;63015;45.378;20.360;2023-11-19T00:38:35;10.35;;;4.53;;
74541;SDS011;63015;45.378;20.360;2023-11-19T00:40:36;9.10;;;4.15;;
74541;SDS011;63015;45.378;20.360;2023-11-19T00:42:36;8.70;;;4.30;;
74541;SDS011;63015;45.378;20.360;2023-11-19T00:44:38;8.90;;;3.78;;
74541;SDS011;63015;45.378;20.360;2023-11-19T00:46:39;8.20;;;3.80;;
74541;SDS011;63015;45.378;20.360;2023-11-19T00:48:40;9.93;;;4.22;;
74541;SDS011;63015;45.378;20.360;2023-11-19T00:50:40;7.88;;;4.00;;
74541;SDS011;63015;45.378;20.360;2023-11-19T00:54:44;7.78;;;3.15;;
74541;SDS011;63015;45.378;20.360;2023-11-19T00:56:45;8.43;;;4.18;;
74541;SDS011;63015;45.378;20.360;2023-11-19T00:58:45;10.77;;;4.40;;
74541;SDS011;63015;45.378;20.360;2023-11-19T01:00:46;10.65;;;4.25;;
74541;SDS011;63015;45.378;20.360;2023-11-19T01:02:47;10.65;;;4.60;;
74541;SDS011;63015;45.378;20.360;2023-11-19T01:04:50;9.30;;;4.13;;
74541;SDS011;63015;45.378;20.360;2023-11-19T01:06:50;10.90;;;4.65;;
74541;SDS011;63015;45.378;20.360;2023-11-19T01:08:51;10.55;;;4.90;;
74541;SDS011;63015;45.378;20.360;2023-11-19T01:10:53;8.30;;;3.33;;
74541;SDS011;63015;45.378;20.360;2023-11-19T01:12:54;8.15;;;4.47;;
74541;SDS011;63015;45.378;20.360;2023-11-19T01:14:55;9.00;;;3.58;;
74541;SDS011;63015;45.378;20.360;2023-11-19T01:16:56;8.27;;;4.03;;
74541;SDS011;63015;45.378;20.360;2023-11-19T01:18:56;8.32;;;3.95;;
74541;SDS011;63015;45.378;20.360;2023-11-19T01:20:57;8.75;;;4.25;;
74541;SDS011;63015;45.378;20.360;2023-11-19T01:22:58;7.35;;;3.72;;
74541;SDS011;63015;45.378;20.360;2023-11-19T01:24:58;8.48;;;4.28;;
74541;SDS011;63015;45.378;20.360;2023-11-19T01:26:59;8.00;;;4.40;;
74541;SDS011;63015;45.378;20.360;2023-11-19T01:29:00;8.27;;;4.18;;
74541;SDS011;63015;45.378;20.360;2023-11-19T01:31:01;8.48;;;3.97;;
74541;SDS011;63015;45.378;20.360;2023-11-19T01:33:02;9.27;;;4.45;;
74541;SDS011;63015;45.378;20.360;2023-11-19T01:35:03;8.43;;;4.13;;
74541;SDS011;63015;45.378;20.360;2023-11-19T01:37:04;8.48;;;3.95;;
74541;SDS011;63015;45.378;20.360;2023-11-19T01:39:05;7.97;;;3.72;;
74541;SDS011;63015;45.378;20.360;2023-11-19T01:41:06;6.75;;;3.58;;
74541;SDS011;63015;45.378;20.360;2023-11-19T01:43:07;8.57;;;4.10;;
74541;SDS011;63015;45.378;20.360;2023-11-19T01:45:12;8.27;;;4.10;;
74541;SDS011;63015;45.378;20.360;2023-11-19T01:47:40;8.93;;;4.20;;
74541;SDS011;63015;45.378;20.360;2023-11-19T01:49:41;8.05;;;4.13;;
74541;SDS011;63015;45.378;20.360;2023-11-19T01:51:41;10.20;;;4.63;;
74541;SDS011;63015;45.378;20.360;2023-11-19T01:53:43;9.75;;;4.55;;
74541;SDS011;63015;45.378;20.360;2023-11-19T01:55:45;8.18;;;4.30;;
74541;SDS011;63015;45.378;20.360;2023-11-19T01:57:48;8.98;;;4.35;;
74541;SDS011;63015;45.378;20.360;2023-11-19T01:59:50;11.32;;;4.80;;
74541;SDS011;63015;45.378;20.360;2023-11-19T02:01:53;8.02;;;3.70;;
74541;SDS011;63015;45.378;20.360;2023-11-19T02:03:54;10.35;;;3.42;;
74541;SDS011;63015;45.378;20.360;2023-11-19T02:05:55;8.70;;;4.20;;
74541;SDS011;63015;45.378;20.360;2023-11-19T02:07:56;9.80;;;4.22;;
74541;SDS011;63015;45.378;20.360;2023-11-19T02:09:57;9.63;;;4.30;;
74541;SDS011;63015;45.378;20.360;2023-11-19T02:12:00;9.05;;;4.13;;
74541;SDS011;63015;45.378;20.360;2023-11-19T02:14:01;8.30;;;3.97;;
74541;SDS011;63015;45.378;20.360;2023-11-19T02:16:03;8.50;;;4.28;;
74541;SDS011;63015;45.378;20.360;2023-11-19T02:20:21;9.55;;;5.80;;
74541;SDS011;63015;45.378;20.360;2023-11-19T02:22:22;11.35;;;5.43;;
74541;SDS011;63015;45.378;20.360;2023-11-19T02:24:23;10.10;;;5.20;;
74541;SDS011;63015;45.378;20.360;2023-11-19T02:26:29;10.00;;;5.00;;
74541;SDS011;63015;45.378;20.360;2023-11-19T02:28:48;11.02;;;5.20;;
74541;SDS011;63015;45.378;20.360;2023-11-19T02:30:48;10.30;;;5.00;;
74541;SDS011;63015;45.378;20.360;2023-11-19T02:32:49;9.32;;;4.43;;
74541;SDS011;63015;45.378;20.360;2023-11-19T02:34:49;9.23;;;4.70;;
74541;SDS011;63015;45.378;20.360;2023-11-19T02:36:50;10.18;;;5.03;;
74541;SDS011;63015;45.378;20.360;2023-11-19T02:38:51;11.02;;;4.88;;
74541;SDS011;63015;45.378;20.360;2023-11-19T02:40:52;10.55;;;5.53;;
74541;SDS011;63015;45.378;20.360;2023-11-19T02:42:53;9.70;;;5.20;;
74541;SDS011;63015;45.378;20.360;2023-11-19T02:44:55;9.45;;;4.88;;
74541;SDS011;63015;45.378;20.360;2023-11-19T02:46:56;9.25;;;4.72;;
74541;SDS011;63015;45.378;20.360;2023-11-19T02:48:59;9.57;;;4.80;;
74541;SDS011;63015;45.378;20.360;2023-11-19T02:51:01;12.38;;;5.07;;
74541;SDS011;63015;45.378;20.360;2023-11-19T02:53:03;8.90;;;4.90;;
74541;SDS011;63015;45.378;20.360;2023-11-19T02:55:04;9.40;;;4.53;;
74541;SDS011;63015;45.378;20.360;2023-11-19T02:57:09;10.73;;;4.72;;
74541;SDS011;63015;45.378;20.360;2023-11-19T02:59:10;10.10;;;4.88;;
74541;SDS011;63015;45.378;20.360;2023-11-19T03:01:27;9.13;;;4.65;;
74541;SDS011;63015;45.378;20.360;2023-11-19T03:03:30;10.38;;;4.90;;
74541;SDS011;63015;45.378;20.360;2023-11-19T03:05:38;12.02;;;5.03;;
74541;SDS011;63015;45.378;20.360;2023-11-19T03:07:41;10.52;;;5.28;;
74541;SDS011;63015;45.378;20.360;2023-11-19T03:09:43;10.98;;;4.45;;
74541;SDS011;63015;45.378;20.360;2023-11-19T03:11:44;10.35;;;4.72;;
74541;SDS011;63015;45.378;20.360;2023-11-19T03:13:44;8.80;;;4.20;;
74541;SDS011;63015;45.378;20.360;2023-11-19T03:15:46;9.60;;;5.00;;
74541;SDS011;63015;45.378;20.360;2023-11-19T03:17:47;10.43;;;4.82;;
74541;SDS011;63015;45.378;20.360;2023-11-19T03:19:48;9.48;;;4.78;;
74541;SDS011;63015;45.378;20.360;2023-11-19T03:21:49;10.60;;;4.93;;
74541;SDS011;63015;45.378;20.360;2023-11-19T03:23:50;11.02;;;4.38;;
74541;SDS011;63015;45.378;20.360;2023-11-19T03:25:51;9.23;;;4.50;;
74541;SDS011;63015;45.378;20.360;2023-11-19T03:27:52;11.23;;;4.95;;
74541;SDS011;63015;45.378;20.360;2023-11-19T03:29:53;8.88;;;4.70;;
74541;SDS011;63015;45.378;20.360;2023-11-19T03:31:54;11.15;;;4.78;;
74541;SDS011;63015;45.378;20.360;2023-11-19T03:33:54;10.05;;;5.18;;
74541;SDS011;63015;45.378;20.360;2023-11-19T03:35:58;10.30;;;4.97;;
74541;SDS011;63015;45.378;20.360;2023-11-19T03:37:58;10.77;;;4.50;;
74541;SDS011;63015;45.378;20.360;2023-11-19T03:39:59;9.32;;;4.38;;
74541;SDS011;63015;45.378;20.360;2023-11-19T03:42:00;11.32;;;4.35;;
74541;SDS011;63015;45.378;20.360;2023-11-19T03:44:00;9.43;;;5.25;;
74541;SDS011;63015;45.378;20.360;2023-11-19T03:46:01;10.40;;;4.95;;
74541;SDS011;63015;45.378;20.360;2023-11-19T03:48:02;9.05;;;4.30;;
74541;SDS011;63015;45.378;20.360;2023-11-19T03:50:03;10.82;;;4.78;;
74541;SDS011;63015;45.378;20.360;2023-11-19T03:52:04;9.88;;;4.35;;
74541;SDS011;63015;45.378;20.360;2023-11-19T03:54:05;8.65;;;4.50;;
74541;SDS011;63015;45.378;20.360;2023-11-19T03:56:07;10.23;;;4.80;;
74541;SDS011;63015;45.378;20.360;2023-11-19T03:58:10;9.02;;;4.72;;
74541;SDS011;63015;45.378;20.360;2023-11-19T04:00:12;11.25;;;5.18;;
74541;SDS011;63015;45.378;20.360;2023-11-19T04:02:14;9.40;;;4.60;;
74541;SDS011;63015;45.378;20.360;2023-11-19T04:04:15;10.20;;;4.97;;
74541;SDS011;63015;45.378;20.360;2023-11-19T04:06:16;8.77;;;4.60;;
74541;SDS011;63015;45.378;20.360;2023-11-19T04:08:16;8.88;;;4.07;;
74541;SDS011;63015;45.378;20.360;2023-11-19T04:10:17;10.40;;;4.93;;
74541;SDS011;63015;45.378;20.360;2023-11-19T04:12:18;7.88;;;4.28;;
74541;SDS011;63015;45.378;20.360;2023-11-19T04:14:19;9.13;;;4.70;;
74541;SDS011;63015;45.378;20.360;2023-11-19T04:16:25;8.68;;;4.47;;
74541;SDS011;63015;45.378;20.360;2023-11-19T04:18:28;10.40;;;4.90;;
74541;SDS011;63015;45.378;20.360;2023-11-19T04:20:29;9.90;;;4.57;;
74541;SDS011;63015;45.378;20.360;2023-11-19T04:22:31;10.38;;;4.50;;
74541;SDS011;63015;45.378;20.360;2023-11-19T04:24:32;9.90;;;4.30;;
74541;SDS011;63015;45.378;20.360;2023-11-19T04:26:33;12.30;;;5.50;;
74541;SDS011;63015;45.378;20.360;2023-11-19T04:28:34;11.32;;;5.40;;
74541;SDS011;63015;45.378;20.360;2023-11-19T04:30:35;10.60;;;5.13;;
74541;SDS011;63015;45.378;20.360;2023-11-19T04:32:35;10.73;;;4.47;;
74541;SDS011;63015;45.378;20.360;2023-11-19T04:34:36;12.63;;;5.50;;
74541;SDS011;63015;45.378;20.360;2023-11-19T04:36:37;9.93;;;4.85;;
74541;SDS011;63015;45.378;20.360;2023-11-19T04:38:39;11.23;;;5.88;;
74541;SDS011;63015;45.378;20.360;2023-11-19T04:40:39;8.80;;;4.20;;
74541;SDS011;63015;45.378;20.360;2023-11-19T04:42:40;10.60;;;5.35;;
74541;SDS011;63015;45.378;20.360;2023-11-19T04:44:41;9.85;;;4.85;;
74541;SDS011;63015;45.378;20.360;2023-11-19T04:46:43;9.48;;;4.68;;
74541;SDS011;63015;45.378;20.360;2023-11-19T04:48:44;8.73;;;4.25;;
74541;SDS011;63015;45.378;20.360;2023-11-19T04:50:45;10.93;;;5.28;;
74541;SDS011;63015;45.378;20.360;2023-11-19T04:52:46;13.50;;;5.78;;
74541;SDS011;63015;45.378;20.360;2023-11-19T04:54:46;14.25;;;5.38;;
74541;SDS011;63015;45.378;20.360;2023-11-19T04:56:48;12.05;;;4.88;;
74541;SDS011;63015;45.378;20.360;2023-11-19T04:58:49;10.23;;;5.10;;
74541;SDS011;63015;45.378;20.360;2023-11-19T05:00:49;10.10;;;5.15;;
74541;SDS011;63015;45.378;20.360;2023-11-19T05:02:50;12.27;;;5.47;;
74541;SDS011;63015;45.378;20.360;2023-11-19T05:04:50;12.25;;;5.78;;
74541;SDS011;63015;45.378;20.360;2023-11-19T05:06:51;9.85;;;5.38;;
74541;SDS011;63015;45.378;20.360;2023-11-19T05:08:51;10.23;;;6.00;;
74541;SDS011;63015;45.378;20.360;2023-11-19T05:10:52;13.70;;;5.63;;
74541;SDS011;63015;45.378;20.360;2023-11-19T05:12:53;12.63;;;5.50;;
74541;SDS011;63015;45.378;20.360;2023-11-19T05:14:56;12.25;;;5.50;;
74541;SDS011;63015;45.378;20.360;2023-11-19T05:16:56;12.80;;;5.65;;
74541;SDS011;63015;45.378;20.360;2023-11-19T05:18:57;13.18;;;6.07;;
74541;SDS011;63015;45.378;20.360;2023-11-19T05:20:57;10.88;;;5.00;;
74541;SDS011;63015;45.378;20.360;2023-11-19T05:22:58;9.90;;;5.07;;
74541;SDS011;63015;45.378;20.360;2023-11-19T05:25:00;11.40;;;5.25;;
74541;SDS011;63015;45.378;20.360;2023-11-19T05:27:03;13.20;;;5.93;;
74541;SDS011;63015;45.378;20.360;2023-11-19T05:29:03;11.32;;;5.60;;
74541;SDS011;63015;45.378;20.360;2023-11-19T05:31:05;11.27;;;5.30;;
74541;SDS011;63015;45.378;20.360;2023-11-19T05:33:06;12.13;;;5.97;;
74541;SDS011;63015;45.378;20.360;2023-11-19T05:35:08;13.10;;;5.70;;
74541;SDS011;63015;45.378;20.360;2023-11-19T05:37:08;15.00;;;5.50;;
74541;SDS011;63015;45.378;20.360;2023-11-19T05:39:10;13.55;;;5.57;;
74541;SDS011;63015;45.378;20.360;2023-11-19T05:41:11;11.43;;;4.78;;
74541;SDS011;63015;45.378;20.360;2023-11-19T05:43:12;9.10;;;4.53;;
74541;SDS011;63015;45.378;20.360;2023-11-19T05:45:12;10.32;;;5.50;;
74541;SDS011;63015;45.378;20.360;2023-11-19T05:47:13;10.45;;;5.45;;
74541;SDS011;63015;45.378;20.360;2023-11-19T05:49:13;11.88;;;5.97;;
74541;SDS011;63015;45.378;20.360;2023-11-19T05:51:14;11.75;;;6.28;;
74541;SDS011;63015;45.378;20.360;2023-11-19T05:53:18;12.10;;;6.70;;
74541;SDS011;63015;45.378;20.360;2023-11-19T05:55:18;11.02;;;5.80;;
74541;SDS011;63015;45.378;20.360;2023-11-19T05:57:19;11.63;;;6.35;;
74541;SDS011;63015;45.378;20.360;2023-11-19T05:59:23;11.82;;;5.47;;
74541;SDS011;63015;45.378;20.360;2023-11-19T06:01:24;14.60;;;5.47;;
74541;SDS011;63015;45.378;20.360;2023-11-19T06:03:25;10.40;;;5.50;;
74541;SDS011;63015;45.378;20.360;2023-11-19T06:05:25;9.05;;;4.47;;
74541;SDS011;63015;45.378;20.360;2023-11-19T06:07:26;10.02;;;5.10;;
74541;SDS011;63015;45.378;20.360;2023-11-19T06:09:27;9.98;;;5.03;;
74541;SDS011;63015;45.378;20.360;2023-11-19T06:11:28;10.15;;;5.15;;
74541;SDS011;63015;45.378;20.360;2023-11-19T06:13:28;13.52;;;6.32;;
74541;SDS011;63015;45.378;20.360;2023-11-19T06:15:30;14.52;;;6.25;;
74541;SDS011;63015;45.378;20.360;2023-11-19T06:17:33;14.55;;;6.32;;
74541;SDS011;63015;45.378;20.360;2023-11-19T06:19:33;12.93;;;6.00;;
74541;SDS011;63015;45.378;20.360;2023-11-19T06:21:34;12.27;;;5.60;;
74541;SDS011;63015;45.378;20.360;2023-11-19T06:23:37;12.02;;;5.70;;
74541;SDS011;63015;45.378;20.360;2023-11-19T06:25:37;10.27;;;5.10;;
74541;SDS011;63015;45.378;20.360;2023-11-19T06:27:38;11.77;;;6.35;;
74541;SDS011;63015;45.378;20.360;2023-11-19T06:29:39;20.85;;;9.05;;
74541;SDS011;63015;45.378;20.360;2023-11-19T06:31:41;19.83;;;9.27;;
74541;SDS011;63015;45.378;20.360;2023-11-19T06:33:42;21.55;;;10.77;;
74541;SDS011;63015;45.378;20.360;2023-11-19T06:35:43;23.92;;;12.57;;
74541;SDS011;63015;45.378;20.360;2023-11-19T06:37:43;13.07;;;7.95;;
74541;SDS011;63015;45.378;20.360;2023-11-19T06:39:44;14.70;;;9.45;;
74541;SDS011;63015;45.378;20.360;2023-11-19T06:41:45;11.82;;;7.53;;
74541;SDS011;63015;45.378;20.360;2023-11-19T06:43:46;12.20;;;6.30;;
74541;SDS011;63015;45.378;20.360;2023-11-19T06:45:47;13.60;;;6.82;;
74541;SDS011;63015;45.378;20.360;2023-11-19T06:47:48;10.07;;;5.88;;
74541;SDS011;63015;45.378;20.360;2023-11-19T06:49:48;12.15;;;6.50;;
74541;SDS011;63015;45.378;20.360;2023-11-19T06:51:49;11.65;;;5.65;;
74541;SDS011;63015;45.378;20.360;2023-11-19T06:53:49;10.10;;;5.25;;
74541;SDS011;63015;45.378;20.360;2023-11-19T06:55:50;8.50;;;4.32;;
74541;SDS011;63015;45.378;20.360;2023-11-19T06:57:51;9.68;;;4.40;;
74541;SDS011;63015;45.378;20.360;2023-11-19T06:59:51;8.73;;;4.50;;
74541;SDS011;63015;45.378;20.360;2023-11-19T07:01:52;8.48;;;4.85;;
74541;SDS011;63015;45.378;20.360;2023-11-19T07:03:52;9.35;;;5.47;;
74541;SDS011;63015;45.378;20.360;2023-11-19T07:05:53;29.30;;;13.57;;
74541;SDS011;63015;45.378;20.360;2023-11-19T07:07:55;29.25;;;14.80;;
74541;SDS011;63015;45.378;20.360;2023-11-19T07:09:56;21.38;;;10.25;;
74541;SDS011;63015;45.378;20.360;2023-11-19T07:11:57;13.95;;;7.97;;
74541;SDS011;63015;45.378;20.360;2023-11-19T07:13:57;13.77;;;7.55;;
74541;SDS011;63015;45.378;20.360;2023-11-19T07:15:58;11.82;;;6.65;;
74541;SDS011;63015;45.378;20.360;2023-11-19T07:17:59;12.00;;;6.88;;
74541;SDS011;63015;45.378;20.360;2023-11-19T07:19:59;15.77;;;9.63;;
74541;SDS011;63015;45.378;20.360;2023-11-19T07:22:00;26.88;;;14.68;;
74541;SDS011;63015;45.378;20.360;2023-11-19T07:24:02;24.95;;;12.73;;
74541;SDS011;63015;45.378;20.360;2023-11-19T07:26:05;19.58;;;9.45;;
74541;SDS011;63015;45.378;20.360;2023-11-19T07:28:08;12.10;;;7.47;;
74541;SDS011;63015;45.378;20.360;2023-11-19T07:30:10;14.38;;;7.18;;
74541;SDS011;63015;45.378;20.360;2023-11-19T07:32:11;10.23;;;5.97;;
74541;SDS011;63015;45.378;20.360;2023-11-19T07:34:13;10.13;;;5.63;;
74541;SDS011;63015;45.378;20.360;2023-11-19T07:36:14;12.18;;;6.20;;
74541;SDS011;63015;45.378;20.360;2023-11-19T07:38:14;10.15;;;5.82;;
74541;SDS011;63015;45.378;20.360;2023-11-19T07:40:15;9.13;;;4.85;;
74541;SDS011;63015;45.378;20.360;2023-11-19T07:42:16;11.07;;;5.95;;
74541;SDS011;63015;45.378;20.360;2023-11-19T07:44:16;12.52;;;6.18;;
74541;SDS011;63015;45.378;20.360;2023-11-19T07:46:17;11.25;;;5.32;;
74541;SDS011;63015;45.378;20.360;2023-11-19T07:48:19;17.05;;;10.15;;
74541;SDS011;63015;45.378;20.360;2023-11-19T07:50:23;13.50;;;6.78;;
74541;SDS011;63015;45.378;20.360;2023-11-19T07:52:25;11.10;;;6.25;;
74541;SDS011;63015;45.378;20.360;2023-11-19T07:54:26;10.75;;;6.63;;
74541;SDS011;63015;45.378;20.360;2023-11-19T07:56:26;10.27;;;5.50;;
74541;SDS011;63015;45.378;20.360;2023-11-19T07:58:27;10.35;;;6.05;;
74541;SDS011;63015;45.378;20.360;2023-11-19T08:00:28;11.45;;;6.40;;
74541;SDS011;63015;45.378;20.360;2023-11-19T08:02:28;15.57;;;6.85;;
74541;SDS011;63015;45.378;20.360;2023-11-19T08:04:29;17.58;;;7.72;;
74541;SDS011;63015;45.378;20.360;2023-11-19T08:06:30;10.52;;;5.30;;
74541;SDS011;63015;45.378;20.360;2023-11-19T08:08:30;15.60;;;7.85;;
74541;SDS011;63015;45.378;20.360;2023-11-19T08:10:32;15.88;;;7.40;;
74541;SDS011;63015;45.378;20.360;2023-11-19T08:12:33;17.08;;;7.97;;
74541;SDS011;63015;45.378;20.360;2023-11-19T08:14:35;15.88;;;6.45;;
74541;SDS011;63015;45.378;20.360;2023-11-19T08:16:38;17.08;;;6.93;;
74541;SDS011;63015;45.378;20.360;2023-11-19T08:18:41;18.17;;;8.57;;
74541;SDS011;63015;45.378;20.360;2023-11-19T08:20:43;15.18;;;7.63;;
74541;SDS011;63015;45.378;20.360;2023-11-19T08:22:44;14.20;;;9.65;;
74541;SDS011;63015;45.378;20.360;2023-11-19T08:24:45;10.15;;;6.20;;
74541;SDS011;63015;45.378;20.360;2023-11-19T08:26:45;11.15;;;6.78;;
74541;SDS011;63015;45.378;20.360;2023-11-19T08:28:46;11.15;;;6.00;;
74541;SDS011;63015;45.378;20.360;2023-11-19T08:30:47;9.93;;;5.00;;
74541;SDS011;63015;45.378;20.360;2023-11-19T08:32:48;11.02;;;6.00;;
74541;SDS011;63015;45.378;20.360;2023-11-19T08:34:48;13.38;;;7.13;;
74541;SDS011;63015;45.378;20.360;2023-11-19T08:36:52;12.38;;;5.47;;
74541;SDS011;63015;45.378;20.360;2023-11-19T08:38:56;12.25;;;6.82;;
74541;SDS011;63015;45.378;20.360;2023-11-19T08:40:56;18.15;;;8.88;;
74541;SDS011;63015;45.378;20.360;2023-11-19T08:43:01;12.77;;;6.45;;
74541;SDS011;63015;45.378;20.360;2023-11-19T08:45:01;12.10;;;6.25;;
74541;SDS011;63015;45.378;20.360;2023-11-19T08:47:02;9.85;;;5.25;;
74541;SDS011;63015;45.378;20.360;2023-11-19T08:49:03;9.13;;;5.32;;
74541;SDS011;63015;45.378;20.360;2023-11-19T08:51:03;12.48;;;6.20;;
74541;SDS011;63015;45.378;20.360;2023-11-19T08:53:04;9.55;;;5.60;;
74541;SDS011;63015;45.378;20.360;2023-11-19T08:55:07;10.48;;;5.68;;
74541;SDS011;63015;45.378;20.360;2023-11-19T08:57:07;11.20;;;5.97;;
74541;SDS011;63015;45.378;20.360;2023-11-19T08:59:09;9.38;;;5.53;;
74541;SDS011;63015;45.378;20.360;2023-11-19T09:01:09;9.57;;;5.53;;
74541;SDS011;63015;45.378;20.360;2023-11-19T09:03:10;8.50;;;4.43;;
74541;SDS011;63015;45.378;20.360;2023-11-19T09:05:10;5.40;;;2.67;;
74541;SDS011;63015;45.378;20.360;2023-11-19T09:07:12;10.10;;;6.32;;
74541;SDS011;63015;45.378;20.360;2023-11-19T09:09:12;9.80;;;5.68;;
74541;SDS011;63015;45.378;20.360;2023-11-19T09:11:14;23.55;;;10.75;;
74541;SDS011;63015;45.378;20.360;2023-11-19T09:13:14;11.15;;;6.05;;
74541;SDS011;63015;45.378;20.360;2023-11-19T09:15:15;16.45;;;7.85;;
74541;SDS011;63015;45.378;20.360;2023-11-19T09:17:16;19.63;;;8.95;;
74541;SDS011;63015;45.378;20.360;2023-11-19T09:19:17;13.63;;;6.70;;
74541;SDS011;63015;45.378;20.360;2023-11-19T09:21:18;14.18;;;6.00;;
74541;SDS011;63015;45.378;20.360;2023-11-19T09:23:19;20.52;;;8.52;;
74541;SDS011;63015;45.378;20.360;2023-11-19T09:25:19;18.00;;;8.50;;
74541;SDS011;63015;45.378;20.360;2023-11-19T09:27:20;14.23;;;7.30;;
74541;SDS011;63015;45.378;20.360;2023-11-19T09:29:20;8.90;;;4.78;;
74541;SDS011;63015;45.378;20.360;2023-11-19T09:31:21;7.85;;;4.63;;
74541;SDS011;63015;45.378;20.360;2023-11-19T09:33:22;9.02;;;4.22;;
74541;SDS011;63015;45.378;20.360;2023-11-19T09:35:22;11.73;;;5.93;;
74541;SDS011;63015;45.378;20.360;2023-11-19T09:37:23;11.20;;;5.70;;
74541;SDS011;63015;45.378;20.360;2023-11-19T09:39:23;10.32;;;5.40;;
74541;SDS011;63015;45.378;20.360;2023-11-19T09:41:25;16.90;;;7.70;;
74541;SDS011;63015;45.378;20.360;2023-11-19T09:43:28;19.70;;;8.43;;
74541;SDS011;63015;45.378;20.360;2023-11-19T09:45:29;29.75;;;11.88;;
74541;SDS011;63015;45.378;20.360;2023-11-19T09:47:37;13.50;;;6.18;;
74541;SDS011;63015;45.378;20.360;2023-11-19T09:49:37;13.45;;;7.32;;
74541;SDS011;63015;45.378;20.360;2023-11-19T09:51:38;11.13;;;5.95;;
74541;SDS011;63015;45.378;20.360;2023-11-19T09:53:39;9.52;;;4.47;;
74541;SDS011;63015;45.378;20.360;2023-11-19T09:55:40;21.20;;;8.75;;
74541;SDS011;63015;45.378;20.360;2023-11-19T09:57:41;24.02;;;9.80;;
74541;SDS011;63015;45.378;20.360;2023-11-19T09:59:44;26.42;;;12.30;;
74541;SDS011;63015;45.378;20.360;2023-11-19T10:01:46;35.15;;;17.23;;
74541;SDS011;63015;45.378;20.360;2023-11-19T10:03:47;27.65;;;14.57;;
74541;SDS011;63015;45.378;20.360;2023-11-19T10:05:56;29.15;;;14.05;;
74541;SDS011;63015;45.378;20.360;2023-11-19T10:07:58;17.50;;;9.65;;
74541;SDS011;63015;45.378;20.360;2023-11-19T10:09:59;15.52;;;7.80;;
74541;SDS011;63015;45.378;20.360;2023-11-19T10:12:01;26.30;;;10.95;;
74541;SDS011;63015;45.378;20.360;2023-11-19T10:14:01;22.88;;;10.68;;
74541;SDS011;63015;45.378;20.360;2023-11-19T10:16:03;16.98;;;7.18;;
74541;SDS011;63015;45.378;20.360;2023-11-19T10:18:14;10.32;;;5.22;;
74541;SDS011;63015;45.378;20.360;2023-11-19T10:20:15;13.82;;;6.00;;
74541;SDS011;63015;45.378;20.360;2023-11-19T10:22:15;18.60;;;7.10;;
74541;SDS011;63015;45.378;20.360;2023-11-19T10:24:25;11.45;;;5.72;;
74541;SDS011;63015;45.378;20.360;2023-11-19T10:26:32;10.57;;;6.03;;
74541;SDS011;63015;45.378;20.360;2023-11-19T10:28:40;11.15;;;6.07;;
74541;SDS011;63015;45.378;20.360;2023-11-19T10:30:44;28.58;;;11.95;;
74541;SDS011;63015;45.378;20.360;2023-11-19T10:32:44;20.02;;;9.18;;
74541;SDS011;63015;45.378;20.360;2023-11-19T10:34:45;9.43;;;5.57;;
74541;SDS011;63015;45.378;20.360;2023-11-19T10:36:46;15.48;;;6.95;;
74541;SDS011;63015;45.378;20.360;2023-11-19T10:38:56;16.80;;;7.82;;
74541;SDS011;63015;45.378;20.360;2023-11-19T10:40:57;17.58;;;8.80;;
74541;SDS011;63015;45.378;20.360;2023-11-19T10:43:03;14.18;;;7.50;;
74541;SDS011;63015;45.378;20.360;2023-11-19T10:45:04;15.63;;;7.30;;
74541;SDS011;63015;45.378;20.360;2023-11-19T10:47:05;11.75;;;6.85;;
74541;SDS011;63015;45.378;20.360;2023-11-19T10:49:08;17.67;;;8.80;;
74541;SDS011;63015;45.378;20.360;2023-11-19T10:51:09;20.10;;;8.32;;
74541;SDS011;63015;45.378;20.360;2023-11-19T10:53:11;27.98;;;10.68;;
74541;SDS011;63015;45.378;20.360;2023-11-19T10:55:18;13.30;;;6.10;;
74541;SDS011;63015;45.378;20.360;2023-11-19T10:57:26;18.02;;;9.13;;
74541;SDS011;63015;45.378;20.360;2023-11-19T10:59:30;12.38;;;6.47;;
74541;SDS011;63015;45.378;20.360;2023-11-19T11:01:43;13.85;;;9.25;;
74541;SDS011;63015;45.378;20.360;2023-11-19T11:03:45;9.25;;;5.35;;
74541;SDS011;63015;45.378;20.360;2023-11-19T11:05:46;8.23;;;4.95;;
74541;SDS011;63015;45.378;20.360;2023-11-19T11:07:48;8.93;;;5.25;;
74541;SDS011;63015;45.378;20.360;2023-11-19T11:09:51;8.45;;;4.13;;
74541;SDS011;63015;45.378;20.360;2023-11-19T11:11:53;14.43;;;4.90;;
74541;SDS011;63015;45.378;20.360;2023-11-19T11:13:57;10.55;;;5.18;;
74541;SDS011;63015;45.378;20.360;2023-11-19T11:16:00;15.50;;;8.27;;
74541;SDS011;63015;45.378;20.360;2023-11-19T11:18:02;13.43;;;6.75;;
74541;SDS011;63015;45.378;20.360;2023-11-19T11:20:02;10.30;;;5.15;;
74541;SDS011;63015;45.378;20.360;2023-11-19T11:22:05;12.32;;;6.20;;
74541;SDS011;63015;45.378;20.360;2023-11-19T11:24:23;12.75;;;6.32;;
74541;SDS011;63015;45.378;20.360;2023-11-19T11:35:53;10.00;;;5.10;;
74541;SDS011;63015;45.378;20.360;2023-11-19T11:38:08;13.23;;;6.97;;
74541;SDS011;63015;45.378;20.360;2023-11-19T11:40:13;8.82;;;5.28;;
74541;SDS011;63015;45.378;20.360;2023-11-19T11:44:57;9.65;;;5.15;;
74541;SDS011;63015;45.378;20.360;2023-11-19T11:47:03;8.60;;;4.68;;
74541;SDS011;63015;45.378;20.360;2023-11-19T11:49:04;9.93;;;4.45;;
74541;SDS011;63015;45.378;20.360;2023-11-19T11:51:08;7.55;;;4.60;;
74541;SDS011;63015;45.378;20.360;2023-11-19T11:53:18;8.10;;;4.70;;
74541;SDS011;63015;45.378;20.360;2023-11-19T11:57:36;11.68;;;6.72;;
74541;SDS011;63015;45.378;20.360;2023-11-19T12:01:59;8.27;;;5.10;;
74541;SDS011;63015;45.378;20.360;2023-11-19T12:04:00;9.40;;;5.55;;
74541;SDS011;63015;45.378;20.360;2023-11-19T12:06:01;8.00;;;4.85;;
74541;SDS011;63015;45.378;20.360;2023-11-19T12:08:04;7.88;;;3.92;;
74541;SDS011;63015;45.378;20.360;2023-11-19T12:10:11;13.75;;;8.02;;
74541;SDS011;63015;45.378;20.360;2023-11-19T12:12:17;9.52;;;4.75;;
74541;SDS011;63015;45.378;20.360;2023-11-19T12:14:39;13.00;;;7.30;;
74541;SDS011;63015;45.378;20.360;2023-11-19T12:19:34;8.38;;;4.95;;
74541;SDS011;63015;45.378;20.360;2023-11-19T12:21:35;8.52;;;4.80;;